sensor_id;sensor_type;location;lat;lon;timestamp;P1;durP1;ratioP1;P2;durP2;ratioP2
37477;SDS011;23334;54.316;10.182;2022-12-20T00:00:43;14.73;;;9.70;;
37477;SDS011;23334;54.316;10.182;2022-12-20T00:03:09;11.93;;;8.00;;
37477;SDS011;23334;54.316;10.182;2022-12-20T00:05:38;12.00;;;7.53;;
37477;SDS011;23334;54.316;10.182;2022-12-20T00:08:04;9.80;;;7.70;;
37477;SDS011;23334;54.316;10.182;2022-12-20T00:10:34;14.43;;;8.70;;
37477;SDS011;23334;54.316;10.182;2022-12-20T00:13:00;12.20;;;8.30;;
37477;SDS011;23334;54.316;10.182;2022-12-20T00:15:26;16.17;;;8.80;;
37477;SDS011;23334;54.316;10.182;2022-12-20T00:17:53;11.50;;;8.20;;
37477;SDS011;23334;54.316;10.182;2022-12-20T00:20:19;10.47;;;8.53;;
37477;SDS011;23334;54.316;10.182;2022-12-20T00:22:45;14.00;;;8.50;;
37477;SDS011;23334;54.316;10.182;2022-12-20T00:25:11;11.77;;;7.60;;
37477;SDS011;23334;54.316;10.182;2022-12-20T00:27:36;9.67;;;8.03;;
37477;SDS011;23334;54.316;10.182;2022-12-20T00:30:03;12.87;;;7.60;;
37477;SDS011;23334;54.316;10.182;2022-12-20T00:32:29;10.63;;;8.13;;
37477;SDS011;23334;54.316;10.182;2022-12-20T00:34:54;11.20;;;6.80;;
37477;SDS011;23334;54.316;10.182;2022-12-20T00:37:20;13.63;;;8.73;;
37477;SDS011;23334;54.316;10.182;2022-12-20T00:39:45;12.67;;;6.23;;
37477;SDS011;23334;54.316;10.182;2022-12-20T00:42:12;11.67;;;7.97;;
37477;SDS011;23334;54.316;10.182;2022-12-20T00:44:38;12.57;;;8.17;;
37477;SDS011;23334;54.316;10.182;2022-12-20T00:47:03;13.17;;;8.27;;
37477;SDS011;23334;54.316;10.182;2022-12-20T00:49:28;11.70;;;7.80;;
37477;SDS011;23334;54.316;10.182;2022-12-20T00:51:54;10.93;;;8.63;;
37477;SDS011;23334;54.316;10.182;2022-12-20T00:54:19;9.90;;;7.50;;
37477;SDS011;23334;54.316;10.182;2022-12-20T00:56:45;13.57;;;8.10;;
37477;SDS011;23334;54.316;10.182;2022-12-20T00:59:10;9.07;;;7.47;;
37477;SDS011;23334;54.316;10.182;2022-12-20T01:01:36;9.93;;;8.10;;
37477;SDS011;23334;54.316;10.182;2022-12-20T01:04:02;10.43;;;7.80;;
37477;SDS011;23334;54.316;10.182;2022-12-20T01:06:28;12.87;;;8.27;;
37477;SDS011;23334;54.316;10.182;2022-12-20T01:08:55;9.00;;;7.20;;
37477;SDS011;23334;54.316;10.182;2022-12-20T01:11:22;9.93;;;6.83;;
37477;SDS011;23334;54.316;10.182;2022-12-20T01:13:49;9.60;;;7.60;;
37477;SDS011;23334;54.316;10.182;2022-12-20T01:16:20;10.90;;;8.00;;
37477;SDS011;23334;54.316;10.182;2022-12-20T01:18:49;11.97;;;7.50;;
37477;SDS011;23334;54.316;10.182;2022-12-20T01:21:16;13.47;;;7.60;;
37477;SDS011;23334;54.316;10.182;2022-12-20T01:23:42;9.63;;;7.00;;
37477;SDS011;23334;54.316;10.182;2022-12-20T01:26:10;7.20;;;6.50;;
37477;SDS011;23334;54.316;10.182;2022-12-20T01:28:38;9.60;;;6.90;;
37477;SDS011;23334;54.316;10.182;2022-12-20T01:31:05;11.77;;;7.50;;
37477;SDS011;23334;54.316;10.182;2022-12-20T01:33:32;13.43;;;8.30;;
37477;SDS011;23334;54.316;10.182;2022-12-20T01:36:02;8.03;;;6.70;;
37477;SDS011;23334;54.316;10.182;2022-12-20T01:38:30;7.43;;;6.13;;
37477;SDS011;23334;54.316;10.182;2022-12-20T01:40:58;9.20;;;7.10;;
37477;SDS011;23334;54.316;10.182;2022-12-20T01:43:24;13.87;;;7.90;;
37477;SDS011;23334;54.316;10.182;2022-12-20T01:45:50;11.33;;;7.30;;
37477;SDS011;23334;54.316;10.182;2022-12-20T01:48:21;7.07;;;6.37;;
37477;SDS011;23334;54.316;10.182;2022-12-20T01:50:49;18.30;;;8.90;;
37477;SDS011;23334;54.316;10.182;2022-12-20T01:53:16;13.13;;;7.03;;
37477;SDS011;23334;54.316;10.182;2022-12-20T01:55:44;13.03;;;8.17;;
37477;SDS011;23334;54.316;10.182;2022-12-20T01:58:11;12.10;;;8.13;;
37477;SDS011;23334;54.316;10.182;2022-12-20T02:00:40;13.73;;;7.70;;
37477;SDS011;23334;54.316;10.182;2022-12-20T02:03:08;10.90;;;7.40;;
37477;SDS011;23334;54.316;10.182;2022-12-20T02:05:36;13.63;;;8.00;;
37477;SDS011;23334;54.316;10.182;2022-12-20T02:08:04;11.63;;;7.70;;
37477;SDS011;23334;54.316;10.182;2022-12-20T02:10:40;10.17;;;7.60;;
37477;SDS011;23334;54.316;10.182;2022-12-20T02:13:36;11.73;;;8.20;;
37477;SDS011;23334;54.316;10.182;2022-12-20T02:16:18;11.63;;;7.40;;
37477;SDS011;23334;54.316;10.182;2022-12-20T02:18:53;16.63;;;8.17;;
37477;SDS011;23334;54.316;10.182;2022-12-20T02:21:29;9.27;;;7.43;;
37477;SDS011;23334;54.316;10.182;2022-12-20T02:24:22;11.23;;;8.07;;
37477;SDS011;23334;54.316;10.182;2022-12-20T02:32:33;14.93;;;7.60;;
37477;SDS011;23334;54.316;10.182;2022-12-20T02:35:05;12.10;;;7.50;;
37477;SDS011;23334;54.316;10.182;2022-12-20T02:37:33;9.00;;;7.00;;
37477;SDS011;23334;54.316;10.182;2022-12-20T02:39:59;11.47;;;7.80;;
37477;SDS011;23334;54.316;10.182;2022-12-20T02:42:26;12.40;;;7.17;;
37477;SDS011;23334;54.316;10.182;2022-12-20T02:44:54;12.50;;;7.27;;
37477;SDS011;23334;54.316;10.182;2022-12-20T02:47:45;10.60;;;7.67;;
37477;SDS011;23334;54.316;10.182;2022-12-20T02:50:39;10.63;;;8.00;;
37477;SDS011;23334;54.316;10.182;2022-12-20T02:53:10;11.50;;;7.50;;
37477;SDS011;23334;54.316;10.182;2022-12-20T02:55:42;10.80;;;8.00;;
37477;SDS011;23334;54.316;10.182;2022-12-20T02:58:17;9.80;;;7.07;;
37477;SDS011;23334;54.316;10.182;2022-12-20T03:01:13;13.83;;;8.30;;
37477;SDS011;23334;54.316;10.182;2022-12-20T03:03:44;13.00;;;7.90;;
37477;SDS011;23334;54.316;10.182;2022-12-20T03:06:10;16.20;;;7.77;;
37477;SDS011;23334;54.316;10.182;2022-12-20T03:08:35;14.77;;;8.20;;
37477;SDS011;23334;54.316;10.182;2022-12-20T03:11:07;11.80;;;7.87;;
37477;SDS011;23334;54.316;10.182;2022-12-20T03:16:35;12.97;;;8.97;;
37477;SDS011;23334;54.316;10.182;2022-12-20T03:19:01;13.73;;;8.80;;
37477;SDS011;23334;54.316;10.182;2022-12-20T03:21:27;12.67;;;9.60;;
37477;SDS011;23334;54.316;10.182;2022-12-20T03:23:52;16.30;;;9.37;;
37477;SDS011;23334;54.316;10.182;2022-12-20T03:26:18;15.50;;;9.97;;
37477;SDS011;23334;54.316;10.182;2022-12-20T03:28:43;23.97;;;10.20;;
37477;SDS011;23334;54.316;10.182;2022-12-20T03:31:08;14.80;;;9.93;;
37477;SDS011;23334;54.316;10.182;2022-12-20T03:33:34;12.60;;;9.40;;
37477;SDS011;23334;54.316;10.182;2022-12-20T03:35:59;16.97;;;10.43;;
37477;SDS011;23334;54.316;10.182;2022-12-20T03:38:25;17.27;;;10.90;;
37477;SDS011;23334;54.316;10.182;2022-12-20T03:40:51;19.10;;;10.13;;
37477;SDS011;23334;54.316;10.182;2022-12-20T03:43:16;19.43;;;10.00;;
37477;SDS011;23334;54.316;10.182;2022-12-20T03:45:42;15.53;;;10.80;;
37477;SDS011;23334;54.316;10.182;2022-12-20T03:48:07;19.23;;;10.53;;
37477;SDS011;23334;54.316;10.182;2022-12-20T03:50:33;17.97;;;11.07;;
37477;SDS011;23334;54.316;10.182;2022-12-20T03:53:00;18.20;;;10.63;;
37477;SDS011;23334;54.316;10.182;2022-12-20T03:55:26;21.67;;;10.30;;
37477;SDS011;23334;54.316;10.182;2022-12-20T03:57:51;19.77;;;11.00;;
37477;SDS011;23334;54.316;10.182;2022-12-20T04:00:17;17.53;;;11.07;;
37477;SDS011;23334;54.316;10.182;2022-12-20T04:02:44;20.37;;;11.53;;
37477;SDS011;23334;54.316;10.182;2022-12-20T04:05:10;16.20;;;9.67;;
37477;SDS011;23334;54.316;10.182;2022-12-20T04:07:35;16.97;;;10.70;;
37477;SDS011;23334;54.316;10.182;2022-12-20T04:10:01;16.70;;;11.03;;
37477;SDS011;23334;54.316;10.182;2022-12-20T04:12:27;20.60;;;11.10;;
37477;SDS011;23334;54.316;10.182;2022-12-20T04:14:53;15.60;;;10.50;;
37477;SDS011;23334;54.316;10.182;2022-12-20T04:17:18;14.30;;;9.60;;
37477;SDS011;23334;54.316;10.182;2022-12-20T04:19:43;17.10;;;9.80;;
37477;SDS011;23334;54.316;10.182;2022-12-20T04:22:09;16.77;;;10.07;;
37477;SDS011;23334;54.316;10.182;2022-12-20T04:24:34;16.30;;;9.70;;
37477;SDS011;23334;54.316;10.182;2022-12-20T04:27:00;17.63;;;11.60;;
37477;SDS011;23334;54.316;10.182;2022-12-20T04:29:26;21.13;;;11.03;;
37477;SDS011;23334;54.316;10.182;2022-12-20T04:31:51;15.17;;;10.00;;
37477;SDS011;23334;54.316;10.182;2022-12-20T04:34:17;13.97;;;9.63;;
37477;SDS011;23334;54.316;10.182;2022-12-20T04:36:42;18.97;;;9.37;;
37477;SDS011;23334;54.316;10.182;2022-12-20T04:39:08;17.07;;;10.13;;
37477;SDS011;23334;54.316;10.182;2022-12-20T04:41:33;21.93;;;11.50;;
37477;SDS011;23334;54.316;10.182;2022-12-20T04:43:59;16.83;;;9.37;;
37477;SDS011;23334;54.316;10.182;2022-12-20T04:46:25;15.07;;;9.53;;
37477;SDS011;23334;54.316;10.182;2022-12-20T04:48:50;19.03;;;9.93;;
37477;SDS011;23334;54.316;10.182;2022-12-20T04:51:16;14.03;;;9.87;;
37477;SDS011;23334;54.316;10.182;2022-12-20T04:53:42;23.73;;;10.27;;
37477;SDS011;23334;54.316;10.182;2022-12-20T04:56:12;16.63;;;9.70;;
37477;SDS011;23334;54.316;10.182;2022-12-20T04:58:39;15.37;;;9.70;;
37477;SDS011;23334;54.316;10.182;2022-12-20T05:01:04;14.30;;;9.37;;
37477;SDS011;23334;54.316;10.182;2022-12-20T05:03:30;12.37;;;8.70;;
37477;SDS011;23334;54.316;10.182;2022-12-20T05:05:56;15.73;;;9.30;;
37477;SDS011;23334;54.316;10.182;2022-12-20T05:08:21;16.03;;;9.20;;
37477;SDS011;23334;54.316;10.182;2022-12-20T05:10:47;13.20;;;8.40;;
37477;SDS011;23334;54.316;10.182;2022-12-20T05:13:13;12.87;;;8.60;;
37477;SDS011;23334;54.316;10.182;2022-12-20T05:15:38;13.97;;;9.10;;
37477;SDS011;23334;54.316;10.182;2022-12-20T05:18:04;11.40;;;8.83;;
37477;SDS011;23334;54.316;10.182;2022-12-20T05:20:30;22.33;;;8.50;;
37477;SDS011;23334;54.316;10.182;2022-12-20T05:22:56;12.03;;;9.00;;
37477;SDS011;23334;54.316;10.182;2022-12-20T05:25:52;16.40;;;8.83;;
37477;SDS011;23334;54.316;10.182;2022-12-20T05:28:36;13.07;;;8.47;;
37477;SDS011;23334;54.316;10.182;2022-12-20T05:31:02;11.17;;;8.10;;
37477;SDS011;23334;54.316;10.182;2022-12-20T05:33:28;13.17;;;8.13;;
37477;SDS011;23334;54.316;10.182;2022-12-20T05:35:54;11.70;;;8.20;;
37477;SDS011;23334;54.316;10.182;2022-12-20T05:38:22;12.63;;;8.23;;
37477;SDS011;23334;54.316;10.182;2022-12-20T05:40:50;13.80;;;8.27;;
37477;SDS011;23334;54.316;10.182;2022-12-20T05:43:16;13.30;;;8.50;;
37477;SDS011;23334;54.316;10.182;2022-12-20T05:45:51;13.03;;;8.37;;
37477;SDS011;23334;54.316;10.182;2022-12-20T05:48:17;10.10;;;7.50;;
37477;SDS011;23334;54.316;10.182;2022-12-20T05:50:44;11.57;;;8.50;;
37477;SDS011;23334;54.316;10.182;2022-12-20T05:53:11;14.90;;;8.50;;
37477;SDS011;23334;54.316;10.182;2022-12-20T05:55:41;9.33;;;7.20;;
37477;SDS011;23334;54.316;10.182;2022-12-20T05:58:08;12.23;;;8.43;;
37477;SDS011;23334;54.316;10.182;2022-12-20T06:00:37;13.57;;;9.10;;
37477;SDS011;23334;54.316;10.182;2022-12-20T06:03:03;18.30;;;9.37;;
37477;SDS011;23334;54.316;10.182;2022-12-20T06:05:28;16.37;;;8.93;;
37477;SDS011;23334;54.316;10.182;2022-12-20T06:07:53;19.17;;;7.90;;
37477;SDS011;23334;54.316;10.182;2022-12-20T06:10:19;12.67;;;7.90;;
37477;SDS011;23334;54.316;10.182;2022-12-20T06:12:44;19.23;;;8.80;;
37477;SDS011;23334;54.316;10.182;2022-12-20T06:15:10;16.30;;;8.90;;
37477;SDS011;23334;54.316;10.182;2022-12-20T06:17:37;10.87;;;8.07;;
37477;SDS011;23334;54.316;10.182;2022-12-20T06:20:02;12.30;;;8.10;;
37477;SDS011;23334;54.316;10.182;2022-12-20T06:22:29;16.50;;;7.90;;
37477;SDS011;23334;54.316;10.182;2022-12-20T06:24:55;13.33;;;8.00;;
37477;SDS011;23334;54.316;10.182;2022-12-20T06:27:20;12.70;;;8.13;;
37477;SDS011;23334;54.316;10.182;2022-12-20T06:29:46;12.00;;;7.97;;
37477;SDS011;23334;54.316;10.182;2022-12-20T06:32:16;13.30;;;8.60;;
37477;SDS011;23334;54.316;10.182;2022-12-20T06:34:42;12.47;;;7.80;;
37477;SDS011;23334;54.316;10.182;2022-12-20T06:37:07;16.23;;;7.93;;
37477;SDS011;23334;54.316;10.182;2022-12-20T06:39:33;13.63;;;7.87;;
37477;SDS011;23334;54.316;10.182;2022-12-20T06:41:59;12.73;;;7.60;;
37477;SDS011;23334;54.316;10.182;2022-12-20T06:44:25;14.57;;;8.40;;
37477;SDS011;23334;54.316;10.182;2022-12-20T06:46:50;14.63;;;9.10;;
37477;SDS011;23334;54.316;10.182;2022-12-20T06:49:15;13.47;;;7.90;;
37477;SDS011;23334;54.316;10.182;2022-12-20T06:51:41;11.07;;;7.53;;
37477;SDS011;23334;54.316;10.182;2022-12-20T06:54:06;11.90;;;8.37;;
37477;SDS011;23334;54.316;10.182;2022-12-20T06:56:32;11.57;;;7.73;;
37477;SDS011;23334;54.316;10.182;2022-12-20T06:58:58;10.60;;;7.30;;
37477;SDS011;23334;54.316;10.182;2022-12-20T07:01:23;23.20;;;13.40;;
37477;SDS011;23334;54.316;10.182;2022-12-20T07:03:49;12.57;;;9.50;;
37477;SDS011;23334;54.316;10.182;2022-12-20T07:06:14;13.10;;;8.70;;
37477;SDS011;23334;54.316;10.182;2022-12-20T07:08:40;18.23;;;10.30;;
37477;SDS011;23334;54.316;10.182;2022-12-20T07:11:05;11.10;;;8.50;;
37477;SDS011;23334;54.316;10.182;2022-12-20T07:13:31;26.80;;;16.50;;
37477;SDS011;23334;54.316;10.182;2022-12-20T07:15:58;13.90;;;9.27;;
37477;SDS011;23334;54.316;10.182;2022-12-20T07:18:24;24.23;;;8.67;;
37477;SDS011;23334;54.316;10.182;2022-12-20T07:20:50;11.33;;;9.70;;
37477;SDS011;23334;54.316;10.182;2022-12-20T07:23:15;12.00;;;8.43;;
37477;SDS011;23334;54.316;10.182;2022-12-20T07:25:42;11.30;;;7.93;;
37477;SDS011;23334;54.316;10.182;2022-12-20T07:28:08;19.40;;;8.33;;
37477;SDS011;23334;54.316;10.182;2022-12-20T07:30:33;12.83;;;7.47;;
37477;SDS011;23334;54.316;10.182;2022-12-20T07:32:59;11.50;;;8.57;;
37477;SDS011;23334;54.316;10.182;2022-12-20T07:35:24;12.80;;;7.83;;
37477;SDS011;23334;54.316;10.182;2022-12-20T07:37:50;10.30;;;6.80;;
37477;SDS011;23334;54.316;10.182;2022-12-20T07:40:16;11.37;;;7.77;;
37477;SDS011;23334;54.316;10.182;2022-12-20T07:42:41;11.37;;;7.27;;
37477;SDS011;23334;54.316;10.182;2022-12-20T07:45:07;10.90;;;8.00;;
37477;SDS011;23334;54.316;10.182;2022-12-20T07:47:32;13.53;;;7.57;;
37477;SDS011;23334;54.316;10.182;2022-12-20T07:49:59;11.43;;;8.70;;
37477;SDS011;23334;54.316;10.182;2022-12-20T07:52:25;9.83;;;6.87;;
37477;SDS011;23334;54.316;10.182;2022-12-20T07:54:55;9.77;;;7.13;;
37477;SDS011;23334;54.316;10.182;2022-12-20T07:57:34;13.20;;;7.97;;
37477;SDS011;23334;54.316;10.182;2022-12-20T08:00:05;11.30;;;7.90;;
37477;SDS011;23334;54.316;10.182;2022-12-20T08:02:34;12.10;;;8.00;;
37477;SDS011;23334;54.316;10.182;2022-12-20T08:05:04;14.60;;;8.90;;
37477;SDS011;23334;54.316;10.182;2022-12-20T08:07:31;10.63;;;7.80;;
37477;SDS011;23334;54.316;10.182;2022-12-20T08:09:57;14.73;;;8.67;;
37477;SDS011;23334;54.316;10.182;2022-12-20T08:12:23;17.03;;;8.87;;
37477;SDS011;23334;54.316;10.182;2022-12-20T08:14:50;13.07;;;8.37;;
37477;SDS011;23334;54.316;10.182;2022-12-20T08:17:20;14.20;;;8.80;;
37477;SDS011;23334;54.316;10.182;2022-12-20T08:19:46;15.47;;;9.83;;
37477;SDS011;23334;54.316;10.182;2022-12-20T08:22:12;20.30;;;10.40;;
37477;SDS011;23334;54.316;10.182;2022-12-20T08:24:38;15.83;;;10.20;;
37477;SDS011;23334;54.316;10.182;2022-12-20T08:27:04;17.53;;;10.50;;
37477;SDS011;23334;54.316;10.182;2022-12-20T08:29:29;13.80;;;9.33;;
37477;SDS011;23334;54.316;10.182;2022-12-20T08:31:55;16.63;;;10.50;;
37477;SDS011;23334;54.316;10.182;2022-12-20T08:34:21;13.40;;;9.40;;
37477;SDS011;23334;54.316;10.182;2022-12-20T08:36:46;17.63;;;10.27;;
37477;SDS011;23334;54.316;10.182;2022-12-20T08:39:12;17.13;;;10.60;;
37477;SDS011;23334;54.316;10.182;2022-12-20T08:41:37;18.77;;;9.93;;
37477;SDS011;23334;54.316;10.182;2022-12-20T08:44:04;12.47;;;9.60;;
37477;SDS011;23334;54.316;10.182;2022-12-20T08:46:29;14.10;;;9.70;;
37477;SDS011;23334;54.316;10.182;2022-12-20T08:48:55;13.30;;;9.60;;
37477;SDS011;23334;54.316;10.182;2022-12-20T08:51:20;12.60;;;9.80;;
37477;SDS011;23334;54.316;10.182;2022-12-20T08:53:46;10.97;;;8.80;;
37477;SDS011;23334;54.316;10.182;2022-12-20T08:56:13;13.33;;;9.17;;
37477;SDS011;23334;54.316;10.182;2022-12-20T08:58:41;12.83;;;7.90;;
37477;SDS011;23334;54.316;10.182;2022-12-20T09:01:08;13.83;;;9.17;;
37477;SDS011;23334;54.316;10.182;2022-12-20T09:03:35;10.87;;;8.73;;
37477;SDS011;23334;54.316;10.182;2022-12-20T09:06:03;9.93;;;7.93;;
37477;SDS011;23334;54.316;10.182;2022-12-20T09:08:31;8.17;;;7.13;;
37477;SDS011;23334;54.316;10.182;2022-12-20T09:11:07;13.60;;;7.90;;
37477;SDS011;23334;54.316;10.182;2022-12-20T09:13:36;11.80;;;7.30;;
37477;SDS011;23334;54.316;10.182;2022-12-20T09:16:02;14.27;;;8.77;;
37477;SDS011;23334;54.316;10.182;2022-12-20T09:18:29;25.13;;;7.63;;
37477;SDS011;23334;54.316;10.182;2022-12-20T09:20:57;10.70;;;8.03;;
37477;SDS011;23334;54.316;10.182;2022-12-20T09:23:24;9.00;;;7.00;;
37477;SDS011;23334;54.316;10.182;2022-12-20T09:25:49;8.50;;;7.13;;
37477;SDS011;23334;54.316;10.182;2022-12-20T09:28:15;9.80;;;7.83;;
37477;SDS011;23334;54.316;10.182;2022-12-20T09:30:40;9.30;;;6.90;;
37477;SDS011;23334;54.316;10.182;2022-12-20T09:33:06;7.10;;;5.53;;
37477;SDS011;23334;54.316;10.182;2022-12-20T09:35:31;9.70;;;6.30;;
37477;SDS011;23334;54.316;10.182;2022-12-20T09:37:57;10.10;;;6.23;;
37477;SDS011;23334;54.316;10.182;2022-12-20T09:40:23;10.10;;;7.10;;
37477;SDS011;23334;54.316;10.182;2022-12-20T09:42:53;6.27;;;5.53;;
37477;SDS011;23334;54.316;10.182;2022-12-20T09:45:29;7.20;;;6.50;;
37477;SDS011;23334;54.316;10.182;2022-12-20T09:47:59;7.73;;;5.90;;
37477;SDS011;23334;54.316;10.182;2022-12-20T09:50:31;7.03;;;5.50;;
37477;SDS011;23334;54.316;10.182;2022-12-20T09:53:18;8.07;;;5.97;;
37477;SDS011;23334;54.316;10.182;2022-12-20T09:55:49;8.90;;;5.70;;
37477;SDS011;23334;54.316;10.182;2022-12-20T10:01:20;8.97;;;5.97;;
37477;SDS011;23334;54.316;10.182;2022-12-20T10:03:46;11.00;;;5.10;;
37477;SDS011;23334;54.316;10.182;2022-12-20T10:06:30;8.87;;;5.17;;
37477;SDS011;23334;54.316;10.182;2022-12-20T10:08:59;6.43;;;4.80;;
37477;SDS011;23334;54.316;10.182;2022-12-20T10:14:06;6.77;;;5.37;;
37477;SDS011;23334;54.316;10.182;2022-12-20T10:16:52;10.27;;;5.40;;
37477;SDS011;23334;54.316;10.182;2022-12-20T10:19:44;6.23;;;5.63;;
37477;SDS011;23334;54.316;10.182;2022-12-20T10:22:32;7.90;;;5.30;;
37477;SDS011;23334;54.316;10.182;2022-12-20T10:25:26;8.50;;;5.33;;
37477;SDS011;23334;54.316;10.182;2022-12-20T10:27:56;10.37;;;5.40;;
37477;SDS011;23334;54.316;10.182;2022-12-20T10:30:25;8.70;;;5.90;;
37477;SDS011;23334;54.316;10.182;2022-12-20T10:32:53;7.40;;;5.47;;
37477;SDS011;23334;54.316;10.182;2022-12-20T10:35:25;8.00;;;5.80;;
37477;SDS011;23334;54.316;10.182;2022-12-20T10:38:06;6.67;;;5.87;;
37477;SDS011;23334;54.316;10.182;2022-12-20T10:40:40;9.80;;;6.30;;
37477;SDS011;23334;54.316;10.182;2022-12-20T10:43:12;10.40;;;6.00;;
37477;SDS011;23334;54.316;10.182;2022-12-20T10:45:44;6.57;;;5.97;;
37477;SDS011;23334;54.316;10.182;2022-12-20T10:48:30;8.00;;;6.50;;
37477;SDS011;23334;54.316;10.182;2022-12-20T10:51:12;8.30;;;6.37;;
37477;SDS011;23334;54.316;10.182;2022-12-20T10:53:49;11.27;;;6.70;;
37477;SDS011;23334;54.316;10.182;2022-12-20T10:56:27;9.43;;;7.07;;
37477;SDS011;23334;54.316;10.182;2022-12-20T10:59:18;8.10;;;6.00;;
37477;SDS011;23334;54.316;10.182;2022-12-20T11:07:35;8.53;;;6.80;;
37477;SDS011;23334;54.316;10.182;2022-12-20T11:10:16;9.43;;;6.60;;
37477;SDS011;23334;54.316;10.182;2022-12-20T11:15:49;9.30;;;6.70;;
37477;SDS011;23334;54.316;10.182;2022-12-20T11:18:22;8.73;;;6.97;;
37477;SDS011;23334;54.316;10.182;2022-12-20T11:21:11;14.53;;;7.70;;
37477;SDS011;23334;54.316;10.182;2022-12-20T11:23:56;9.00;;;7.93;;
37477;SDS011;23334;54.316;10.182;2022-12-20T11:29:27;9.70;;;7.67;;
37477;SDS011;23334;54.316;10.182;2022-12-20T11:35:26;9.53;;;7.63;;
37477;SDS011;23334;54.316;10.182;2022-12-20T11:43:45;11.27;;;7.80;;
37477;SDS011;23334;54.316;10.182;2022-12-20T11:49:19;13.03;;;7.43;;
37477;SDS011;23334;54.316;10.182;2022-12-20T11:52:05;10.07;;;7.87;;
37477;SDS011;23334;54.316;10.182;2022-12-20T11:54:48;8.53;;;7.47;;
37477;SDS011;23334;54.316;10.182;2022-12-20T11:57:30;26.57;;;13.53;;
37477;SDS011;23334;54.316;10.182;2022-12-20T12:00:00;11.03;;;7.47;;
37477;SDS011;23334;54.316;10.182;2022-12-20T12:02:47;11.17;;;7.57;;
37477;SDS011;23334;54.316;10.182;2022-12-20T12:05:28;16.23;;;11.23;;
37477;SDS011;23334;54.316;10.182;2022-12-20T12:08:05;12.50;;;7.93;;
37477;SDS011;23334;54.316;10.182;2022-12-20T12:10:38;10.73;;;8.30;;
37477;SDS011;23334;54.316;10.182;2022-12-20T12:13:18;21.90;;;13.27;;
37477;SDS011;23334;54.316;10.182;2022-12-20T12:15:54;15.80;;;10.70;;
37477;SDS011;23334;54.316;10.182;2022-12-20T12:18:35;13.77;;;8.93;;
37477;SDS011;23334;54.316;10.182;2022-12-20T12:26:21;21.33;;;11.27;;
37477;SDS011;23334;54.316;10.182;2022-12-20T12:31:34;21.10;;;14.23;;
37477;SDS011;23334;54.316;10.182;2022-12-20T12:34:28;15.83;;;11.90;;
37477;SDS011;23334;54.316;10.182;2022-12-20T12:37:25;12.00;;;8.23;;
37477;SDS011;23334;54.316;10.182;2022-12-20T12:45:35;12.47;;;8.50;;
37477;SDS011;23334;54.316;10.182;2022-12-20T12:48:13;8.90;;;6.20;;
37477;SDS011;23334;54.316;10.182;2022-12-20T12:50:51;9.63;;;6.90;;
37477;SDS011;23334;54.316;10.182;2022-12-20T12:53:31;10.03;;;7.30;;
37477;SDS011;23334;54.316;10.182;2022-12-20T13:11:49;9.27;;;6.40;;
37477;SDS011;23334;54.316;10.182;2022-12-20T13:16:42;6.73;;;5.83;;
37477;SDS011;23334;54.316;10.182;2022-12-20T13:19:10;9.90;;;6.00;;
37477;SDS011;23334;54.316;10.182;2022-12-20T13:21:39;12.67;;;6.70;;
37477;SDS011;23334;54.316;10.182;2022-12-20T13:27:02;11.57;;;7.20;;
37477;SDS011;23334;54.316;10.182;2022-12-20T13:29:42;7.10;;;5.70;;
37477;SDS011;23334;54.316;10.182;2022-12-20T13:32:50;8.37;;;6.10;;
37477;SDS011;23334;54.316;10.182;2022-12-20T13:37:59;10.13;;;5.80;;
37477;SDS011;23334;54.316;10.182;2022-12-20T13:40:34;7.80;;;6.50;;
37477;SDS011;23334;54.316;10.182;2022-12-20T13:43:09;7.80;;;6.33;;
37477;SDS011;23334;54.316;10.182;2022-12-20T13:45:47;10.50;;;5.50;;
37477;SDS011;23334;54.316;10.182;2022-12-20T13:48:19;7.70;;;5.77;;
37477;SDS011;23334;54.316;10.182;2022-12-20T13:50:54;10.40;;;5.77;;
37477;SDS011;23334;54.316;10.182;2022-12-20T13:53:24;7.17;;;5.30;;
37477;SDS011;23334;54.316;10.182;2022-12-20T13:55:51;5.73;;;5.23;;
37477;SDS011;23334;54.316;10.182;2022-12-20T13:58:18;7.97;;;5.10;;
37477;SDS011;23334;54.316;10.182;2022-12-20T14:00:52;6.33;;;4.83;;
37477;SDS011;23334;54.316;10.182;2022-12-20T14:03:28;6.67;;;5.40;;
37477;SDS011;23334;54.316;10.182;2022-12-20T14:06:00;6.73;;;5.70;;
37477;SDS011;23334;54.316;10.182;2022-12-20T14:08:30;6.77;;;5.20;;
37477;SDS011;23334;54.316;10.182;2022-12-20T14:11:11;6.13;;;5.50;;
37477;SDS011;23334;54.316;10.182;2022-12-20T14:14:00;5.47;;;4.93;;
37477;SDS011;23334;54.316;10.182;2022-12-20T14:16:28;6.63;;;5.47;;
37477;SDS011;23334;54.316;10.182;2022-12-20T14:19:05;7.10;;;5.40;;
37477;SDS011;23334;54.316;10.182;2022-12-20T14:21:35;8.40;;;5.47;;
37477;SDS011;23334;54.316;10.182;2022-12-20T14:24:04;10.13;;;5.30;;
37477;SDS011;23334;54.316;10.182;2022-12-20T14:26:37;8.43;;;5.73;;
37477;SDS011;23334;54.316;10.182;2022-12-20T14:29:11;10.30;;;6.10;;
37477;SDS011;23334;54.316;10.182;2022-12-20T14:31:41;9.63;;;5.37;;
37477;SDS011;23334;54.316;10.182;2022-12-20T14:36:37;10.10;;;5.67;;
37477;SDS011;23334;54.316;10.182;2022-12-20T14:39:21;6.73;;;5.10;;
37477;SDS011;23334;54.316;10.182;2022-12-20T14:41:57;8.43;;;5.67;;
37477;SDS011;23334;54.316;10.182;2022-12-20T14:44:33;9.60;;;4.80;;
37477;SDS011;23334;54.316;10.182;2022-12-20T14:47:19;9.00;;;5.67;;
37477;SDS011;23334;54.316;10.182;2022-12-20T14:49:53;7.93;;;5.50;;
37477;SDS011;23334;54.316;10.182;2022-12-20T14:57:49;34.30;;;20.50;;
37477;SDS011;23334;54.316;10.182;2022-12-20T15:00:22;10.20;;;7.53;;
37477;SDS011;23334;54.316;10.182;2022-12-20T15:08:11;14.60;;;9.63;;
37477;SDS011;23334;54.316;10.182;2022-12-20T15:10:46;13.23;;;10.13;;
37477;SDS011;23334;54.316;10.182;2022-12-20T15:13:16;12.33;;;8.90;;
37477;SDS011;23334;54.316;10.182;2022-12-20T15:15:43;12.77;;;7.60;;
37477;SDS011;23334;54.316;10.182;2022-12-20T15:18:13;12.53;;;7.77;;
37477;SDS011;23334;54.316;10.182;2022-12-20T15:20:40;12.10;;;7.90;;
37477;SDS011;23334;54.316;10.182;2022-12-20T15:23:25;15.90;;;8.20;;
37477;SDS011;23334;54.316;10.182;2022-12-20T15:25:52;12.23;;;8.03;;
37477;SDS011;23334;54.316;10.182;2022-12-20T15:28:19;11.60;;;8.70;;
37477;SDS011;23334;54.316;10.182;2022-12-20T15:30:46;11.13;;;8.00;;
37477;SDS011;23334;54.316;10.182;2022-12-20T15:33:18;13.03;;;8.93;;
37477;SDS011;23334;54.316;10.182;2022-12-20T15:35:46;11.43;;;7.90;;
37477;SDS011;23334;54.316;10.182;2022-12-20T15:38:16;12.30;;;9.10;;
37477;SDS011;23334;54.316;10.182;2022-12-20T15:40:44;9.60;;;8.33;;
37477;SDS011;23334;54.316;10.182;2022-12-20T15:43:12;11.00;;;8.47;;
37477;SDS011;23334;54.316;10.182;2022-12-20T15:45:40;10.27;;;8.73;;
37477;SDS011;23334;54.316;10.182;2022-12-20T15:48:11;11.77;;;9.03;;
37477;SDS011;23334;54.316;10.182;2022-12-20T15:50:38;16.17;;;9.03;;
37477;SDS011;23334;54.316;10.182;2022-12-20T15:53:08;12.60;;;9.30;;
37477;SDS011;23334;54.316;10.182;2022-12-20T15:55:38;12.17;;;9.77;;
37477;SDS011;23334;54.316;10.182;2022-12-20T15:58:03;10.03;;;8.33;;
37477;SDS011;23334;54.316;10.182;2022-12-20T16:00:29;17.93;;;8.93;;
37477;SDS011;23334;54.316;10.182;2022-12-20T16:02:54;13.00;;;8.83;;
37477;SDS011;23334;54.316;10.182;2022-12-20T16:05:21;15.50;;;10.40;;
37477;SDS011;23334;54.316;10.182;2022-12-20T16:07:47;16.27;;;13.20;;